createdAt,value
2023-03-24T00:01:23.803Z,2.40
2023-03-24T00:03:52.650Z,2.05
2023-03-24T00:06:23.463Z,1.55
2023-03-24T00:08:52.995Z,3.03
2023-03-24T00:11:21.413Z,1.40
2023-03-24T00:13:50.195Z,2.03
2023-03-24T00:16:19.441Z,2.05
2023-03-24T00:18:50.344Z,1.88
2023-03-24T00:21:18.397Z,2.08
2023-03-24T00:23:47.733Z,2.70
2023-03-24T00:26:16.759Z,1.80
2023-03-24T00:28:46.590Z,2.53
2023-03-24T00:31:15.957Z,2.42
2023-03-24T00:33:48.063Z,1.75
2023-03-24T00:36:17.037Z,2.92
2023-03-24T00:38:47.224Z,1.85
2023-03-24T00:41:20.021Z,1.73
2023-03-24T00:43:48.899Z,1.52
2023-03-24T00:46:28.654Z,2.05
2023-03-24T00:49:02.197Z,2.75
2023-03-24T00:53:59.822Z,1.65
2023-03-24T00:56:31.877Z,2.33
2023-03-24T00:59:02.400Z,2.13
2023-03-24T01:01:33.170Z,2.05
2023-03-24T01:04:02.391Z,2.95
2023-03-24T01:06:30.435Z,2.17
2023-03-24T01:08:58.831Z,2.38
2023-03-24T01:11:35.886Z,2.10
2023-03-24T01:14:04.047Z,2.80
2023-03-24T01:16:32.365Z,2.42
2023-03-24T01:19:00.584Z,2.25
2023-03-24T01:21:29.033Z,2.38
2023-03-24T01:23:57.924Z,2.17
2023-03-24T01:26:25.861Z,1.90
2023-03-24T01:28:55.439Z,3.38
2023-03-24T01:31:23.399Z,2.38
2023-03-24T01:33:51.512Z,2.88
2023-03-24T01:36:19.453Z,2.28
2023-03-24T01:38:47.492Z,2.03
2023-03-24T01:41:15.607Z,2.63
2023-03-24T01:43:44.610Z,3.38
2023-03-24T01:46:19.735Z,2.47
2023-03-24T01:48:53.021Z,2.53
2023-03-24T01:51:24.727Z,2.45
2023-03-24T01:53:59.030Z,3.08
2023-03-24T01:56:29.528Z,2.72
2023-03-24T01:59:01.195Z,3.00
2023-03-24T02:01:43.057Z,2.05
2023-03-24T02:04:42.272Z,2.72
2023-03-24T02:07:19.925Z,2.35
2023-03-24T02:09:48.656Z,2.75
2023-03-24T02:12:17.194Z,2.70
2023-03-24T02:14:45.546Z,3.13
2023-03-24T02:17:57.223Z,3.50
2023-03-24T02:20:50.747Z,2.70
2023-03-24T02:23:58.998Z,3.42
2023-03-24T02:26:53.307Z,2.80
2023-03-24T02:30:00.705Z,3.17
2023-03-24T02:33:02.944Z,3.80
2023-03-24T02:36:09.558Z,3.00
2023-03-24T02:38:54.942Z,3.90
2023-03-24T02:41:31.743Z,2.72
2023-03-24T02:44:06.572Z,3.03
2023-03-24T02:46:39.453Z,2.70
2023-03-24T02:49:22.948Z,2.88
2023-03-24T02:51:54.093Z,3.42
2023-03-24T02:54:28.771Z,3.20
2023-03-24T02:57:04.405Z,3.00
2023-03-24T02:59:58.914Z,2.75
2023-03-24T03:02:54.967Z,3.88
2023-03-24T03:05:28.577Z,4.07
2023-03-24T03:08:01.781Z,2.92
2023-03-24T03:10:33.539Z,3.20
2023-03-24T03:13:08.928Z,2.90
2023-03-24T03:15:41.070Z,2.60
2023-03-24T03:18:16.104Z,2.35
2023-03-24T03:20:50.626Z,2.60
2023-03-24T03:23:23.383Z,3.25
2023-03-24T03:28:30.012Z,4.13
2023-03-24T03:31:00.800Z,2.65
2023-03-24T03:33:35.941Z,3.25
2023-03-24T03:36:09.862Z,3.90
2023-03-24T03:38:47.323Z,2.40
2023-03-24T03:41:18.393Z,2.47
2023-03-24T03:43:50.873Z,2.83
2023-03-24T03:46:19.688Z,2.55
2023-03-24T03:48:49.102Z,2.40
2023-03-24T03:51:18.353Z,2.72
2023-03-24T03:53:59.445Z,2.88
2023-03-24T03:59:24.986Z,3.08
2023-03-24T04:01:53.322Z,3.17
2023-03-24T04:05:07.011Z,1.75
2023-03-24T04:08:03.755Z,2.35
2023-03-24T04:11:33.972Z,2.45
2023-03-24T04:14:24.215Z,2.92
2023-03-24T04:17:27.187Z,2.50
2023-03-24T04:20:05.981Z,3.00
2023-03-24T04:22:47.291Z,2.25
2023-03-24T04:25:29.927Z,2.33
2023-03-24T04:28:03.143Z,2.60
2023-03-24T04:30:42.603Z,3.08
2023-03-24T04:33:18.973Z,2.90
2023-03-24T04:35:56.502Z,2.58
2023-03-24T04:38:38.284Z,2.63
2023-03-24T04:41:29.624Z,3.13
2023-03-24T04:44:10.739Z,4.10
2023-03-24T04:46:52.261Z,2.65
2023-03-24T04:49:24.979Z,3.28
2023-03-24T04:51:53.211Z,2.03
2023-03-24T04:54:25.459Z,2.75
2023-03-24T04:57:01.731Z,2.17
2023-03-24T04:59:46.146Z,2.50
2023-03-24T05:02:16.598Z,2.30
2023-03-24T05:04:52.768Z,2.80
2023-03-24T05:07:28.480Z,2.20
2023-03-24T05:10:00.007Z,2.65
2023-03-24T05:12:27.877Z,3.30
2023-03-24T05:15:19.400Z,2.90
2023-03-24T05:17:52.951Z,2.03
2023-03-24T05:20:24.515Z,2.17
2023-03-24T05:22:53.110Z,1.95
2023-03-24T05:25:21.400Z,1.80
2023-03-24T05:27:50.263Z,1.65
2023-03-24T05:30:24.592Z,1.92
2023-03-24T05:32:59.231Z,1.35
2023-03-24T05:35:27.178Z,2.03
2023-03-24T05:37:55.181Z,2.15
2023-03-24T05:40:23.248Z,2.05
2023-03-24T05:42:58.490Z,2.70
2023-03-24T05:45:30.524Z,1.92
2023-03-24T05:48:01.672Z,1.52
2023-03-24T05:50:45.488Z,2.33
2023-03-24T05:53:13.559Z,2.33
2023-03-24T05:55:59.955Z,1.83
2023-03-24T05:58:59.774Z,3.17
2023-03-24T06:01:48.266Z,1.48
2023-03-24T06:04:29.936Z,2.45
2023-03-24T06:07:03.791Z,2.50
2023-03-24T06:09:37.209Z,3.03
2023-03-24T06:12:07.267Z,3.22
2023-03-24T06:14:38.551Z,2.00
2023-03-24T06:17:15.021Z,4.57
2023-03-24T06:19:49.683Z,2.95
2023-03-24T06:22:38.582Z,3.15
2023-03-24T06:25:11.537Z,3.58
2023-03-24T06:27:46.209Z,2.08
2023-03-24T06:30:17.620Z,2.15
2023-03-24T06:32:47.080Z,2.65
2023-03-24T06:35:17.975Z,2.97
2023-03-24T06:37:56.460Z,1.75
2023-03-24T06:40:24.443Z,3.40
2023-03-24T06:42:57.164Z,3.33
2023-03-24T06:45:25.304Z,2.85
2023-03-24T06:47:55.733Z,2.42
2023-03-24T06:50:26.975Z,2.17
2023-03-24T06:52:56.183Z,4.57
2023-03-24T06:55:24.905Z,2.80
2023-03-24T06:57:55.166Z,2.63
2023-03-24T07:00:25.814Z,1.60
2023-03-24T07:03:08.040Z,1.95
2023-03-24T07:05:41.386Z,5.65
2023-03-24T07:08:33.784Z,3.35
2023-03-24T07:11:00.260Z,2.25
2023-03-24T07:13:28.475Z,4.43
2023-03-24T07:16:04.204Z,3.22
2023-03-24T07:18:32.406Z,2.42
2023-03-24T07:21:06.358Z,1.23
2023-03-24T07:23:36.249Z,2.78
2023-03-24T07:26:10.717Z,3.63
2023-03-24T07:28:47.355Z,4.32
2023-03-24T07:31:24.662Z,1.98
2023-03-24T07:34:01.918Z,4.47
2023-03-24T07:36:31.423Z,3.65
2023-03-24T07:38:59.852Z,3.50
2023-03-24T07:41:34.477Z,4.88
2023-03-24T07:44:07.226Z,3.55
2023-03-24T07:46:39.067Z,3.40
2023-03-24T07:49:18.012Z,2.70
2023-03-24T07:51:52.948Z,3.83
2023-03-24T07:54:24.768Z,3.08
2023-03-24T07:56:54.036Z,4.38
2023-03-24T07:59:21.845Z,3.33
2023-03-24T08:01:56.633Z,2.97
2023-03-24T08:04:46.907Z,4.88
2023-03-24T08:07:50.462Z,4.90
2023-03-24T08:10:18.656Z,3.58
2023-03-24T08:12:46.947Z,4.20
2023-03-24T08:15:15.746Z,8.48
2023-03-24T08:17:43.523Z,4.80
2023-03-24T08:20:15.165Z,5.93
2023-03-24T08:22:50.118Z,5.40
2023-03-24T08:25:19.946Z,4.22
2023-03-24T08:27:48.686Z,4.28
2023-03-24T08:30:19.670Z,4.22
2023-03-24T08:32:49.810Z,3.53
2023-03-24T08:35:20.434Z,3.83
2023-03-24T08:37:50.229Z,3.50
2023-03-24T08:40:23.281Z,3.33
2023-03-24T08:42:53.405Z,5.18
2023-03-24T08:45:23.999Z,3.47
2023-03-24T08:47:53.191Z,3.85
2023-03-24T08:50:23.849Z,3.55
2023-03-24T08:52:53.952Z,3.95
2023-03-24T08:55:23.680Z,5.68
2023-03-24T08:57:52.237Z,4.25
2023-03-24T09:00:22.661Z,4.43
2023-03-24T09:02:53.937Z,4.22
2023-03-24T09:05:36.633Z,4.50
2023-03-24T09:08:10.601Z,5.45
2023-03-24T09:10:38.416Z,3.47
2023-03-24T09:13:06.405Z,3.78
2023-03-24T09:15:34.910Z,4.68
2023-03-24T09:18:03.210Z,5.80
2023-03-24T09:20:31.094Z,2.97
2023-03-24T09:22:59.242Z,5.15
2023-03-24T09:25:28.434Z,4.55
2023-03-24T09:27:56.942Z,3.08
2023-03-24T09:30:24.702Z,5.38
2023-03-24T09:32:52.535Z,4.50
2023-03-24T09:35:20.726Z,5.15
2023-03-24T09:37:48.550Z,5.18
2023-03-24T09:40:21.997Z,5.90
2023-03-24T09:42:57.585Z,4.97
2023-03-24T09:45:28.203Z,6.85
2023-03-24T09:47:59.888Z,7.03
2023-03-24T09:50:34.452Z,6.00
2023-03-24T09:53:08.866Z,3.78
2023-03-24T09:55:40.686Z,5.63
2023-03-24T09:58:14.272Z,4.07
2023-03-24T10:00:46.170Z,5.07
2023-03-24T10:03:20.959Z,6.43
2023-03-24T10:05:55.392Z,4.32
2023-03-24T10:08:31.538Z,4.30
2023-03-24T10:11:04.566Z,4.75
2023-03-24T10:13:47.446Z,5.43
2023-03-24T10:18:57.576Z,4.82
2023-03-24T10:21:28.086Z,4.50
2023-03-24T10:24:02.378Z,4.55
2023-03-24T10:26:37.630Z,4.55
2023-03-24T10:29:18.498Z,4.10
2023-03-24T10:31:52.334Z,3.97
2023-03-24T10:34:22.130Z,3.28
2023-03-24T10:36:52.234Z,3.78
2023-03-24T10:39:24.302Z,4.60
2023-03-24T10:42:02.124Z,5.28
2023-03-24T10:44:31.893Z,5.20
2023-03-24T10:47:04.670Z,2.50
2023-03-24T10:49:33.652Z,3.95
2023-03-24T10:52:03.849Z,3.65
2023-03-24T10:54:32.790Z,4.07
2023-03-24T10:57:08.210Z,3.97
2023-03-24T10:59:47.009Z,3.30
2023-03-24T11:02:19.755Z,3.67
2023-03-24T11:04:53.760Z,2.70
2023-03-24T11:07:23.074Z,3.35
2023-03-24T11:09:59.891Z,3.72
2023-03-24T11:12:29.538Z,4.70
2023-03-24T11:15:21.058Z,4.32
2023-03-24T11:17:55.885Z,3.42
2023-03-24T11:20:30.015Z,3.20
2023-03-24T11:23:02.019Z,3.78
2023-03-24T11:25:33.762Z,3.38
2023-03-24T11:28:04.729Z,3.55
2023-03-24T11:30:45.933Z,4.70
2023-03-24T11:33:21.104Z,2.42
2023-03-24T11:36:10.926Z,4.47
2023-03-24T11:38:39.030Z,4.25
2023-03-24T11:41:07.370Z,4.40
2023-03-24T11:43:35.205Z,3.95
2023-03-24T11:46:09.813Z,2.97
2023-03-24T11:48:45.656Z,3.63
2023-03-24T11:51:18.761Z,2.60
2023-03-24T11:53:52.118Z,4.35
2023-03-24T11:56:29.247Z,3.40
2023-03-24T11:59:03.856Z,3.72
2023-03-24T12:01:37.880Z,3.70
2023-03-24T12:04:25.935Z,2.90
2023-03-24T12:07:10.088Z,3.38
2023-03-24T12:09:46.719Z,3.33
2023-03-24T12:12:24.038Z,2.85
2023-03-24T12:15:27.477Z,4.15
2023-03-24T12:18:08.806Z,2.92
2023-03-24T12:20:46.335Z,3.35
2023-03-24T12:23:19.138Z,4.57
2023-03-24T12:26:06.463Z,2.83
2023-03-24T12:29:14.066Z,3.35
2023-03-24T12:32:06.795Z,3.33
2023-03-24T12:34:56.379Z,3.90
2023-03-24T12:37:32.156Z,3.58
2023-03-24T12:40:18.358Z,2.72
2023-03-24T12:42:47.581Z,3.60
2023-03-24T12:45:28.822Z,3.05
2023-03-24T12:48:23.206Z,3.03
2023-03-24T12:51:05.632Z,4.13
2023-03-24T12:53:56.806Z,4.20
2023-03-24T12:56:32.352Z,4.03
2023-03-24T12:59:04.322Z,3.75
2023-03-24T13:01:36.382Z,3.43
2023-03-24T13:04:11.438Z,3.88
2023-03-24T13:06:47.554Z,3.22
2023-03-24T13:09:25.587Z,5.43
2023-03-24T13:11:59.577Z,3.50
2023-03-24T13:14:32.640Z,4.43
2023-03-24T13:17:07.065Z,3.05
2023-03-24T13:19:38.738Z,2.78
2023-03-24T13:22:15.695Z,4.25
2023-03-24T13:24:44.647Z,3.85
2023-03-24T13:27:21.799Z,4.45
2023-03-24T13:30:08.315Z,2.05
2023-03-24T13:32:42.772Z,2.30
2023-03-24T13:35:21.821Z,3.65
2023-03-24T13:37:53.957Z,4.20
2023-03-24T13:40:24.514Z,3.58
2023-03-24T13:42:55.956Z,4.13
2023-03-24T13:45:37.002Z,5.32
2023-03-24T13:48:16.579Z,3.78
2023-03-24T13:50:55.380Z,2.83
2023-03-24T13:53:33.720Z,4.10
2023-03-24T13:56:04.383Z,1.95
2023-03-24T13:58:48.256Z,2.75
2023-03-24T14:01:20.188Z,2.67
2023-03-24T14:04:08.562Z,4.83
2023-03-24T14:06:47.430Z,3.00
2023-03-24T14:09:22.588Z,2.60
2023-03-24T14:12:09.206Z,5.35
2023-03-24T14:14:37.965Z,3.58
2023-03-24T14:17:16.065Z,2.95
2023-03-24T14:19:46.001Z,1.83
2023-03-24T14:22:16.211Z,2.45
2023-03-24T14:24:48.189Z,2.50
2023-03-24T14:27:37.941Z,1.95
2023-03-24T14:30:15.096Z,1.52
2023-03-24T14:32:47.095Z,3.17
2023-03-24T14:35:26.223Z,2.70
2023-03-24T14:37:57.743Z,2.67
2023-03-24T14:40:32.126Z,3.05
2023-03-24T14:43:18.549Z,3.85
2023-03-24T14:45:56.110Z,1.35
2023-03-24T14:48:34.825Z,2.00
2023-03-24T14:51:09.842Z,2.85
2023-03-24T14:53:39.608Z,1.95
2023-03-24T14:56:15.368Z,2.28
2023-03-24T14:58:48.105Z,4.25
2023-03-24T15:03:54.202Z,2.10
2023-03-24T15:06:24.334Z,3.28
2023-03-24T15:08:57.364Z,2.70
2023-03-24T15:11:29.450Z,3.30
2023-03-24T15:13:58.809Z,2.45
2023-03-24T15:16:28.998Z,3.22
2023-03-24T15:19:02.786Z,3.55
2023-03-24T15:21:36.948Z,1.40
2023-03-24T15:24:30.722Z,2.20
2023-03-24T15:27:20.407Z,2.90
2023-03-24T15:29:56.086Z,2.58
2023-03-24T15:32:27.022Z,3.65
2023-03-24T15:34:57.034Z,2.85
2023-03-24T15:37:31.757Z,2.35
2023-03-24T15:40:14.796Z,3.30
2023-03-24T15:42:46.341Z,2.90
2023-03-24T15:45:22.583Z,1.88
2023-03-24T15:47:54.024Z,2.67
2023-03-24T15:50:34.968Z,2.28
2023-03-24T15:53:06.227Z,1.50
2023-03-24T15:55:36.012Z,2.53
2023-03-24T15:58:22.964Z,1.92
2023-03-24T16:00:54.226Z,1.27
2023-03-24T16:03:26.781Z,0.93
2023-03-24T16:08:29.562Z,1.42
2023-03-24T16:10:59.702Z,1.55
2023-03-24T16:13:29.361Z,1.02
2023-03-24T16:15:59.576Z,1.05
2023-03-24T16:18:33.168Z,1.65
2023-03-24T16:21:04.491Z,1.67
2023-03-24T16:23:32.450Z,0.70
2023-03-24T16:26:00.411Z,1.45
2023-03-24T16:28:31.234Z,1.23
2023-03-24T16:31:03.545Z,1.83
2023-03-24T16:33:32.314Z,1.00
2023-03-24T16:36:00.944Z,1.48
2023-03-24T16:38:29.039Z,1.45
2023-03-24T16:40:58.901Z,1.23
2023-03-24T16:43:27.741Z,1.55
2023-03-24T16:45:56.915Z,2.08
2023-03-24T16:48:24.931Z,1.67
2023-03-24T16:50:54.895Z,0.80
2023-03-24T16:53:22.960Z,1.52
2023-03-24T16:55:50.895Z,2.13
2023-03-24T16:58:18.960Z,2.22
2023-03-24T17:00:49.224Z,1.27
2023-03-24T17:03:19.044Z,1.25
2023-03-24T17:05:51.148Z,2.88
2023-03-24T17:08:22.335Z,0.98
2023-03-24T17:10:52.658Z,2.53
2023-03-24T17:13:22.644Z,2.10
2023-03-24T17:15:51.068Z,1.48
2023-03-24T17:18:21.084Z,1.88
2023-03-24T17:20:50.555Z,1.23
2023-03-24T17:23:18.947Z,1.15
2023-03-24T17:25:47.006Z,1.85
2023-03-24T17:28:16.218Z,2.08
2023-03-24T17:30:45.262Z,1.98
2023-03-24T17:33:14.725Z,2.80
2023-03-24T17:35:46.810Z,1.67
2023-03-24T17:38:16.666Z,2.05
2023-03-24T17:40:44.659Z,1.92
2023-03-24T17:43:12.666Z,2.20
2023-03-24T17:45:41.160Z,1.48
2023-03-24T17:48:09.280Z,1.58
2023-03-24T17:50:37.303Z,1.75
2023-03-24T17:53:07.290Z,2.85
2023-03-24T17:55:35.643Z,2.03
2023-03-24T17:58:03.594Z,2.65
2023-03-24T18:00:31.483Z,1.42
2023-03-24T18:02:59.512Z,1.35
2023-03-24T18:05:27.550Z,1.45
2023-03-24T18:07:57.890Z,2.35
2023-03-24T18:10:27.190Z,2.35
2023-03-24T18:12:55.465Z,1.98
2023-03-24T18:15:25.643Z,2.00
2023-03-24T18:17:53.654Z,2.40
2023-03-24T18:20:21.960Z,3.17
2023-03-24T18:22:49.939Z,2.97
2023-03-24T18:25:17.842Z,3.38
2023-03-24T18:27:47.103Z,2.58
2023-03-24T18:30:16.807Z,1.15
2023-03-24T18:32:44.980Z,2.15
2023-03-24T18:35:16.538Z,2.30
2023-03-24T18:37:45.526Z,1.27
2023-03-24T18:40:16.614Z,1.95
2023-03-24T18:42:44.589Z,2.58
2023-03-24T18:45:17.728Z,1.30
2023-03-24T18:47:46.694Z,2.08
2023-03-24T18:50:15.389Z,1.70
2023-03-24T18:52:43.441Z,3.95
2023-03-24T18:55:11.959Z,2.65
2023-03-24T18:57:41.893Z,2.28
2023-03-24T19:00:12.998Z,2.97
2023-03-24T19:02:42.915Z,2.20
2023-03-24T19:05:12.792Z,1.77
2023-03-24T19:07:40.900Z,3.83
2023-03-24T19:10:09.310Z,2.40
2023-03-24T19:12:37.238Z,2.95
2023-03-24T19:15:07.011Z,2.08
2023-03-24T19:17:34.956Z,1.83
2023-03-24T19:20:07.446Z,3.05
2023-03-24T19:22:35.576Z,1.83
2023-03-24T19:25:03.522Z,2.15
2023-03-24T19:27:31.431Z,1.80
2023-03-24T19:29:59.315Z,2.13
2023-03-24T19:32:27.176Z,2.38
2023-03-24T19:34:55.074Z,1.85
2023-03-24T19:37:24.377Z,2.58
2023-03-24T19:39:52.970Z,2.95
2023-03-24T19:42:22.690Z,3.03
2023-03-24T19:44:50.484Z,1.70
2023-03-24T19:47:18.306Z,1.90
2023-03-24T19:49:46.911Z,2.55
2023-03-24T19:52:14.800Z,1.40
2023-03-24T19:54:44.178Z,2.10
2023-03-24T19:57:12.094Z,2.17
2023-03-24T19:59:39.901Z,3.75
2023-03-24T20:02:11.334Z,2.05
2023-03-24T20:04:39.320Z,2.22
2023-03-24T20:07:07.339Z,2.25
2023-03-24T20:09:37.855Z,2.22
2023-03-24T20:12:07.583Z,1.88
2023-03-24T20:14:35.498Z,1.88
2023-03-24T20:17:03.498Z,3.60
2023-03-24T20:19:31.487Z,3.28
2023-03-24T20:21:59.418Z,2.22
2023-03-24T20:24:27.348Z,2.15
2023-03-24T20:26:55.434Z,3.13
2023-03-24T20:29:24.567Z,3.33
2023-03-24T20:31:52.401Z,3.00
2023-03-24T20:34:20.527Z,3.28
2023-03-24T20:36:48.257Z,2.88
2023-03-24T20:39:16.390Z,2.65
2023-03-24T20:41:44.256Z,2.92
2023-03-24T20:44:11.997Z,3.22
2023-03-24T20:46:41.217Z,2.78
2023-03-24T20:49:14.171Z,1.65
2023-03-24T20:51:42.331Z,2.75
2023-03-24T20:54:10.186Z,2.72
2023-03-24T20:56:38.385Z,2.75
2023-03-24T20:59:07.037Z,2.58
2023-03-24T21:01:42.193Z,2.35
2023-03-24T21:04:11.690Z,2.17
2023-03-24T21:06:39.488Z,2.75
2023-03-24T21:09:07.945Z,2.38
2023-03-24T21:11:36.010Z,2.15
2023-03-24T21:14:03.902Z,2.83
2023-03-24T21:16:33.693Z,3.25
2023-03-24T21:19:03.638Z,2.58
2023-03-24T21:21:33.134Z,2.65
2023-03-24T21:24:01.002Z,1.50
2023-03-24T21:26:28.918Z,1.15
2023-03-24T21:28:56.854Z,2.13
2023-03-24T21:31:26.277Z,1.80
2023-03-24T21:33:55.326Z,2.05
2023-03-24T21:36:24.446Z,2.35
2023-03-24T21:38:54.058Z,1.92
2023-03-24T21:41:22.954Z,1.73
2023-03-24T21:43:54.343Z,2.97
2023-03-24T21:46:25.781Z,4.03
2023-03-24T21:48:59.338Z,1.10
2023-03-24T21:51:30.735Z,1.43
2023-03-24T21:54:03.268Z,0.90
2023-03-24T21:56:32.466Z,2.05
2023-03-24T21:59:00.431Z,0.88
2023-03-24T22:01:30.995Z,1.00
2023-03-24T22:03:59.505Z,1.77
2023-03-24T22:06:29.060Z,1.30
2023-03-24T22:09:06.444Z,1.35
2023-03-24T22:11:35.971Z,1.25
2023-03-24T22:14:04.273Z,2.25
2023-03-24T22:16:33.004Z,1.90
2023-03-24T22:19:01.477Z,0.90
2023-03-24T22:21:29.386Z,2.08
2023-03-24T22:23:57.266Z,1.88
2023-03-24T22:26:25.363Z,1.17
2023-03-24T22:28:56.112Z,1.85
2023-03-24T22:31:24.717Z,1.80
2023-03-24T22:33:53.073Z,1.40
2023-03-24T22:36:21.384Z,1.45
2023-03-24T22:38:49.195Z,1.25
2023-03-24T22:41:17.014Z,0.93
2023-03-24T22:43:46.142Z,1.30
2023-03-24T22:46:15.487Z,0.90
2023-03-24T22:48:43.330Z,1.20
2023-03-24T22:51:16.841Z,1.13
2023-03-24T22:53:44.778Z,1.15
2023-03-24T22:56:12.850Z,1.35
2023-03-24T22:58:41.708Z,1.73
2023-03-24T23:01:10.437Z,1.48
2023-03-24T23:03:39.659Z,1.67
2023-03-24T23:06:09.092Z,1.85
2023-03-24T23:08:38.309Z,1.65
2023-03-24T23:11:07.827Z,1.40
2023-03-24T23:13:36.420Z,1.95
2023-03-24T23:16:04.455Z,2.15
2023-03-24T23:18:32.761Z,2.38
2023-03-24T23:21:08.166Z,1.67
2023-03-24T23:23:37.142Z,1.15
2023-03-24T23:26:05.766Z,2.03
2023-03-24T23:28:34.277Z,2.72
2023-03-24T23:31:02.129Z,1.85
2023-03-24T23:33:30.240Z,2.90
2023-03-24T23:35:59.565Z,0.57
2023-03-24T23:38:28.758Z,1.15
2023-03-24T23:40:56.529Z,0.73
2023-03-24T23:43:24.359Z,1.30
2023-03-24T23:45:56.159Z,1.92
2023-03-24T23:48:24.030Z,3.15
2023-03-24T23:50:56.792Z,2.40
2023-03-24T23:55:57.010Z,2.22
2023-03-24T23:58:24.983Z,2.97
